Darstellungsparameter: Aktuell verwendete Einstellungen:
Skalierung der Graphiken ... ?
xyx+y,   Skalierungsfaktor:      Skalierung: Modus: x, Faktor: 1
Darstellungszeitraum ... ?
Vom - - bis: - -   Zeitraum: 26.11.2020 - 27.11.2020
Min/Max/Avg-Anzeige ... ?
Zeige MMA aktuell
Zeige MMA Monat
Zeige MMA alles
Zeige --A aktuell
Zeige --A Monat
Zeige --A alles
Keine MMA-Anzeige
MMA:
Minimum Maximum Average (ber die Originaldaten)
MMA-Basis: 14.04.2020 - 16.05.2020
Quicknavigation für Darstellung... ?
Tage:      1T, 2T, 3T, 5T -1T -2T -3T -5T +1T +2T +3T +5T
Wochen: 1W, 2W, 3W -1W -2W -3W +1W +2W +3W
Monate: 1M, 3M, 6M -1M -3M -6M +1M +3M +6M
Jahre:    1J, 3J, 5J, 10J -1J -3J -5J -10J +1J +3J +5J +10J
Nutze für die Darstellung ... ?
Originaldaten oder ...
Mittelwerte Minima Maxima auf...
Stundenbasis Tagesbasis Wochenbasis
Monatsbasis Jahresbasis      Datenbasis: Mittelwerte auf Stundenbasis
Darstellen als:
Statistik (Auto) Statistik J:M      Darstellung:
Zur Graphik,    zurück zur Übersicht aller Sensoren.
 
Tabellarische Datenbersicht: ?
 
Sensor: Nr:Datum:Temp:Abs-Feuchte:Windchill:Wind:
Aussen-T/F 1 26-11-2020 00:00:00 1.63333 C 5.2 g/m*3 1.63 C 0 km/h
2 26-11-2020 01:00:00 1.95 C 5.32 g/m*3 1.95 C 0 km/h
3 26-11-2020 02:00:00 2.6 C 5.59 g/m*3 2.6 C 0.13333 km/h
4 26-11-2020 03:00:00 2.81667 C 5.7 g/m*3 2.82 C 0 km/h
5 26-11-2020 04:00:00 3.06667 C 5.79 g/m*3 3.07 C 0.26667 km/h
6 26-11-2020 05:00:00 3.3 C 5.88 g/m*3 3.3 C 0.66667 km/h
7 26-11-2020 06:00:00 3.025 C 5.75 g/m*3 3.03 C 0.93333 km/h
8 26-11-2020 07:00:00 2.81667 C 5.68 g/m*3 2.82 C 0.93333 km/h
9 26-11-2020 08:00:00 2.59167 C 5.55 g/m*3 2.59 C 2.53333 km/h
10 26-11-2020 09:00:00 2.55833 C 5.57 g/m*3 2.56 C 1.86667 km/h
11 26-11-2020 10:00:00 2.81667 C 5.67 g/m*3 2.82 C 1.06667 km/h
12 26-11-2020 11:00:00 3.55 C 5.96 g/m*3 3.55 C 2 km/h
13 26-11-2020 12:00:00 4.25 C 6.15 g/m*3 4.25 C 2.13333 km/h
14 26-11-2020 13:00:00 4.74167 C 6.23 g/m*3 4.74 C 3.2 km/h
15 26-11-2020 14:00:00 5.09167 C 6.28 g/m*3 5.09 C 3.88333 km/h
16 26-11-2020 15:00:00 5.13333 C 6.25 g/m*3 5.13 C 2.4 km/h
17 26-11-2020 16:00:00 4.81667 C 6.16 g/m*3 4.82 C 1.60833 km/h
18 26-11-2020 17:00:00 4.38333 C 6.03 g/m*3 4.38 C 1.86667 km/h
19 26-11-2020 18:00:00 4.16667 C 5.98 g/m*3 4.17 C 1.6 km/h
20 26-11-2020 19:00:00 4.1 C 5.95 g/m*3 4.1 C 0.13333 km/h
21 26-11-2020 20:00:00 3.85 C 5.83 g/m*3 3.85 C 0.93333 km/h
22 26-11-2020 21:00:00 2.8 C 5.45 g/m*3 2.8 C 1.2 km/h
23 26-11-2020 22:00:00 2.86667 C 5.54 g/m*3 2.87 C 0.53333 km/h
24 26-11-2020 23:00:00 2.59167 C 5.44 g/m*3 2.59 C 0 km/h
25 27-11-2020 00:00:00 2.25833 C 5.35 g/m*3 2.26 C 0 km/h
Sensor: Nr:Datum:Temp:Abs-Feuchte:Windchill:Wind:
Aussen-T/F 26 27-11-2020 01:00:00 2.84167 C 5.59 g/m*3 2.84 C 0 km/h
27 27-11-2020 02:00:00 3 C 5.65 g/m*3 3 C 0 km/h
28 27-11-2020 03:00:00 2.91667 C 5.62 g/m*3 2.92 C 0 km/h
29 27-11-2020 04:00:00 2.85833 C 5.59 g/m*3 2.86 C 0.26667 km/h
30 27-11-2020 05:00:00 2.75833 C 5.56 g/m*3 2.76 C 0.4 km/h
31 27-11-2020 06:00:00 2.7 C 5.54 g/m*3 2.7 C 0.4 km/h
32 27-11-2020 07:00:00 2.68333 C 5.53 g/m*3 2.68 C 0.13333 km/h
33 27-11-2020 08:00:00 2.8 C 5.6 g/m*3 2.8 C 0.13333 km/h
34 27-11-2020 09:00:00 2.96667 C 5.69 g/m*3 2.97 C 0 km/h
35 27-11-2020 10:00:00 3.45833 C 5.83 g/m*3 3.46 C 3.6 km/h
36 27-11-2020 11:00:00 3.85 C 5.91 g/m*3 3.85 C 2.4 km/h
37 27-11-2020 12:00:00 4.01667 C 5.89 g/m*3 2.94 C 5.075 km/h
38 27-11-2020 13:00:00 4.15 C 5.9 g/m*3 4.15 C 3.06667 km/h
39 27-11-2020 14:00:00 4.425 C 6.02 g/m*3 4.43 C 2.53333 km/h
40 27-11-2020 15:00:00 4.675 C 6.11 g/m*3 4.68 C 2.8 km/h
41 27-11-2020 16:00:00 4.6 C 6.09 g/m*3 4.6 C 1.6 km/h
42 27-11-2020 17:00:00 4.6 C 6.12 g/m*3 4.6 C 1.33333 km/h
43 27-11-2020 18:00:00 4.51667 C 6.12 g/m*3 4.52 C 1.33333 km/h
44 27-11-2020 19:00:00 4.45 C 6.09 g/m*3 4.45 C 0.53333 km/h
45 27-11-2020 20:00:00 4.38333 C 6.08 g/m*3 4.38 C 0.53333 km/h
46 27-11-2020 21:00:00 4.39167 C 6.07 g/m*3 4.39 C 0.26667 km/h
47 27-11-2020 22:00:00 4.30833 C 6.04 g/m*3 4.31 C 0 km/h
48 27-11-2020 23:00:00 4.05833 C 5.93 g/m*3 4.06 C 2.4 km/h

Maximal/Minimal-Werte vom 14.04.2020 - 16.05.2020

Sensor Min Max Avg
Temp
(Aussen-T/F)
-0.1 °C
15-04-2020  06:55:00
26.2 °C
17-04-2020  18:05:00
11.98 °C

Die Daten stammen von einer Davis Vantage Pro 2 Wetter-Station und werden unter Linux mit der Software wview2wettercgi und aufbereitet. Alle Angaben erfolgen ohne Gewähr für ihre Vollständigkeit oder Richtigkeit.
Kontakt: Rainer Krienke krienke@uni-koblenz.de . Meine Webseiten an der Uni Koblenz oder privat.
Version: $Revision: 0.78 $